Brohman, Michigan
Current Conditions -  °F | °C
As of 5:14 AM on Tuesday 27 Jan 2015 (Local Time) from KRQB Reporting Station
Overcast Overcast  
Wind Chill: 18°   Ceiling: 7000
Heat Index: 18°   Visibility: 10mi
Dew Point: 12°   Wind: 3mph
Humidity: 76%   Direction: 50°NE
Pressure: 30.02"   Gusts: NA
Location:  43.69°N, 85.82°W
Report Text: KRQB 271014Z AUTO 05003KT 10SM SCT060 OVC070 M08/M11 A3002 RMK AO2 T10771112
Loading
Personal Weather Stations






























Interactive Weather Map New forecast layout! Learn more

10-Day Weather Forecast

Advertisements
Track Severe Weather on mobile